createdAt,value
2018-09-24T00:01:53.245Z,101013.00
2018-09-24T00:06:56.224Z,101014.00
2018-09-24T00:11:59.877Z,101026.00
2018-09-24T00:17:04.905Z,101029.00
2018-09-24T00:22:07.932Z,101054.00
2018-09-24T00:27:10.952Z,101075.00
2018-09-24T00:32:13.919Z,101095.00
2018-09-24T00:37:16.891Z,101101.00
2018-09-24T00:42:19.904Z,101129.00
2018-09-24T00:47:22.920Z,101121.00
2018-09-24T00:52:25.946Z,101119.00
2018-09-24T00:57:28.939Z,101123.00
2018-09-24T01:02:31.911Z,101133.00
2018-09-24T01:07:34.915Z,101129.00
2018-09-24T01:12:37.934Z,101136.00
2018-09-24T01:17:40.987Z,101152.00
2018-09-24T01:22:44.038Z,101164.00
2018-09-24T01:27:47.043Z,101165.00
2018-09-24T01:32:50.159Z,101186.00
2018-09-24T01:37:53.236Z,101200.00
2018-09-24T01:42:56.254Z,101208.00
2018-09-24T01:47:59.274Z,101205.00
2018-09-24T01:53:05.192Z,101225.00
2018-09-24T01:58:08.364Z,101211.00
2018-09-24T02:03:11.345Z,101232.00
2018-09-24T02:08:14.734Z,101233.00
2018-09-24T02:13:17.728Z,101242.00
2018-09-24T02:18:20.719Z,101259.00
2018-09-24T02:23:23.687Z,101272.00
2018-09-24T02:28:28.721Z,101276.00
2018-09-24T02:33:31.691Z,101289.00
2018-09-24T02:38:40.651Z,101299.00
2018-09-24T02:43:43.790Z,101312.00
2018-09-24T02:48:46.777Z,101315.00
2018-09-24T02:53:49.774Z,101315.00
2018-09-24T02:58:52.791Z,101322.00
2018-09-24T03:03:55.759Z,101341.00
2018-09-24T03:08:58.749Z,101329.00
2018-09-24T03:14:04.524Z,101342.00
2018-09-24T03:19:07.518Z,101337.00
2018-09-24T03:24:10.504Z,101349.00
2018-09-24T03:29:21.226Z,101342.00
2018-09-24T03:34:24.282Z,101349.00
2018-09-24T03:39:27.322Z,101351.00
2018-09-24T03:44:30.364Z,101357.00
2018-09-24T03:49:33.303Z,101361.00
2018-09-24T03:54:36.309Z,101367.00
2018-09-24T03:59:39.284Z,101371.00
2018-09-24T04:04:48.040Z,101387.00
2018-09-24T04:09:57.042Z,101403.00
2018-09-24T04:15:05.541Z,101417.00
2018-09-24T04:20:14.239Z,101425.00
2018-09-24T04:25:22.959Z,101429.00
2018-09-24T04:30:31.749Z,101434.00
2018-09-24T04:35:40.500Z,101439.00
2018-09-24T04:40:49.091Z,101450.00
2018-09-24T04:45:57.791Z,101450.00
2018-09-24T04:51:06.563Z,101442.00
2018-09-24T04:56:15.275Z,101448.00
2018-09-24T05:01:24.654Z,101447.00
2018-09-24T05:06:33.207Z,101465.00
2018-09-24T05:11:42.036Z,101474.00
2018-09-24T05:16:50.644Z,101490.00
2018-09-24T05:21:59.752Z,101498.00
2018-09-24T05:27:09.482Z,101511.00
2018-09-24T05:32:18.082Z,101508.00
2018-09-24T05:37:26.611Z,101534.00
2018-09-24T05:42:36.454Z,101540.00
2018-09-24T05:47:45.371Z,101539.00
2018-09-24T05:52:53.992Z,101552.00
2018-09-24T05:58:02.656Z,101570.00
2018-09-24T06:03:11.391Z,101580.00
2018-09-24T06:08:20.283Z,101602.00
2018-09-24T06:13:28.955Z,101620.00
2018-09-24T06:18:37.883Z,101637.00
2018-09-24T06:23:46.549Z,101648.00
2018-09-24T06:28:55.205Z,101655.00
2018-09-24T06:34:03.959Z,101678.00
2018-09-24T06:39:13.844Z,101683.00
2018-09-24T06:44:22.526Z,101691.00
2018-09-24T06:49:31.448Z,101705.00
2018-09-24T06:54:40.063Z,101707.00
2018-09-24T06:59:48.770Z,101715.00
2018-09-24T07:04:57.309Z,101710.00
2018-09-24T07:10:06.071Z,101723.00
2018-09-24T07:15:14.811Z,101733.00
2018-09-24T07:20:23.468Z,101744.00
2018-09-24T07:25:32.326Z,101759.00
2018-09-24T07:30:40.852Z,101766.00
2018-09-24T07:35:49.504Z,101778.00
2018-09-24T07:40:58.126Z,101783.00
2018-09-24T07:46:09.424Z,101781.00
2018-09-24T07:51:18.075Z,101767.00
2018-09-24T07:56:26.660Z,101795.00
2018-09-24T08:01:35.191Z,101803.00
2018-09-24T08:06:43.992Z,101810.00
2018-09-24T08:11:52.656Z,101805.00
2018-09-24T08:17:03.616Z,101823.00
2018-09-24T08:22:12.308Z,101818.00
2018-09-24T08:27:21.015Z,101827.00
2018-09-24T08:32:29.703Z,101786.00
2018-09-24T08:37:38.356Z,101843.00
2018-09-24T08:42:46.976Z,101853.00
2018-09-24T08:47:55.732Z,101854.00
2018-09-24T08:53:04.382Z,101845.00
2018-09-24T08:58:12.958Z,101872.00
2018-09-24T09:03:21.769Z,101870.00
2018-09-24T09:08:30.427Z,101890.00
2018-09-24T09:13:39.289Z,101896.00
2018-09-24T09:18:48.061Z,101886.00
2018-09-24T09:23:57.044Z,101880.00
2018-09-24T09:29:05.824Z,101892.00
2018-09-24T09:34:14.535Z,101884.00
2018-09-24T09:39:23.352Z,101871.00
2018-09-24T09:44:32.032Z,101862.00
2018-09-24T09:49:40.902Z,101857.00
2018-09-24T09:54:49.631Z,101861.00
2018-09-24T09:59:58.519Z,101861.00
2018-09-24T10:05:08.470Z,101878.00
2018-09-24T10:10:17.148Z,101856.00
2018-09-24T10:15:25.904Z,101869.00
2018-09-24T10:20:34.766Z,101884.00
2018-09-24T10:25:43.580Z,101882.00
2018-09-24T10:30:52.282Z,101878.00
2018-09-24T10:36:01.156Z,101886.00
2018-09-24T10:41:09.837Z,101874.00
2018-09-24T10:46:18.525Z,101877.00
2018-09-24T10:51:27.073Z,101871.00
2018-09-24T10:56:35.950Z,101875.00
2018-09-24T11:01:44.860Z,101864.00
2018-09-24T11:06:53.491Z,101863.00
2018-09-24T11:12:02.100Z,101875.00
2018-09-24T11:17:11.183Z,101870.00
2018-09-24T11:22:19.638Z,101869.00
2018-09-24T11:27:28.368Z,101881.00
2018-09-24T11:32:36.914Z,101872.00
2018-09-24T11:37:45.761Z,101876.00
2018-09-24T11:42:54.417Z,101872.00
2018-09-24T11:48:03.108Z,101873.00
2018-09-24T11:53:11.708Z,101876.00
2018-09-24T11:58:20.256Z,101870.00
2018-09-24T12:03:29.300Z,101865.00
2018-09-24T12:08:38.216Z,101881.00
2018-09-24T12:13:46.910Z,101859.00
2018-09-24T12:18:55.601Z,101852.00
2018-09-24T12:24:04.378Z,101851.00
2018-09-24T12:29:13.099Z,101871.00
2018-09-24T12:34:21.696Z,101870.00
2018-09-24T12:39:30.404Z,101859.00
2018-09-24T12:44:39.387Z,101863.00
2018-09-24T12:49:48.149Z,101858.00
2018-09-24T12:54:56.784Z,101857.00
2018-09-24T13:00:05.544Z,101852.00
2018-09-24T13:05:14.248Z,101857.00
2018-09-24T13:10:22.920Z,101854.00
2018-09-24T13:15:31.736Z,101860.00
2018-09-24T13:20:40.521Z,101855.00
2018-09-24T13:25:49.383Z,101839.00
2018-09-24T13:30:58.023Z,101845.00
2018-09-24T13:36:07.749Z,101851.00
2018-09-24T13:41:16.495Z,101839.00
2018-09-24T13:46:25.237Z,101837.00
2018-09-24T13:51:33.856Z,101839.00
2018-09-24T13:56:42.623Z,101824.00
2018-09-24T14:01:51.303Z,101825.00
2018-09-24T14:07:00.000Z,101832.00
2018-09-24T14:12:10.954Z,101830.00
2018-09-24T14:17:19.570Z,101831.00
2018-09-24T14:22:28.365Z,101825.00
2018-09-24T14:27:36.960Z,101825.00
2018-09-24T14:32:45.486Z,101837.00
2018-09-24T14:37:54.212Z,101839.00
2018-09-24T14:43:03.152Z,101852.00
2018-09-24T14:48:12.049Z,101846.00
2018-09-24T14:53:21.685Z,101823.00
2018-09-24T14:58:30.312Z,101828.00
2018-09-24T15:03:39.059Z,101833.00
2018-09-24T15:08:48.104Z,101832.00
2018-09-24T15:13:56.801Z,101825.00
2018-09-24T15:19:05.599Z,101825.00
2018-09-24T15:24:14.124Z,101831.00
2018-09-24T15:29:22.608Z,101830.00
2018-09-24T15:34:31.275Z,101832.00
2018-09-24T15:39:39.931Z,101832.00
2018-09-24T15:44:48.727Z,101825.00
2018-09-24T15:49:57.302Z,101819.00
2018-09-24T15:55:05.892Z,101810.00
2018-09-24T16:00:14.589Z,101817.00
2018-09-24T16:05:23.336Z,101818.00
2018-09-24T16:10:31.883Z,101815.00
2018-09-24T16:15:40.694Z,101814.00
2018-09-24T16:20:49.593Z,101817.00
2018-09-24T16:25:58.136Z,101813.00
2018-09-24T16:31:09.185Z,101812.00
2018-09-24T16:36:17.693Z,101824.00
2018-09-24T16:41:26.321Z,101829.00
2018-09-24T16:46:34.956Z,101829.00
2018-09-24T16:51:43.726Z,101836.00
2018-09-24T16:56:52.465Z,101839.00
2018-09-24T17:02:03.688Z,101823.00
2018-09-24T17:07:12.414Z,101833.00
2018-09-24T17:12:21.372Z,101844.00
2018-09-24T17:17:30.285Z,101849.00
2018-09-24T17:22:39.058Z,101844.00
2018-09-24T17:27:47.882Z,101853.00
2018-09-24T17:32:56.593Z,101869.00
2018-09-24T17:38:05.172Z,101861.00
2018-09-24T17:43:13.883Z,101862.00
2018-09-24T17:48:22.769Z,101874.00
2018-09-24T17:53:31.540Z,101887.00
2018-09-24T17:58:40.349Z,101891.00
2018-09-24T18:03:56.107Z,101899.00
2018-09-24T18:09:05.016Z,101913.00
2018-09-24T18:14:14.203Z,101924.00
2018-09-24T18:19:22.941Z,101925.00
2018-09-24T18:24:31.777Z,101946.00
2018-09-24T18:29:40.579Z,101950.00
2018-09-24T18:34:49.357Z,101961.00
2018-09-24T18:39:58.054Z,101960.00
2018-09-24T18:45:08.995Z,101979.00
2018-09-24T18:50:17.876Z,101985.00
2018-09-24T18:55:27.082Z,101985.00
2018-09-24T19:00:35.790Z,101998.00
2018-09-24T19:05:44.777Z,101995.00
2018-09-24T19:10:53.424Z,101996.00
2018-09-24T19:16:02.236Z,102000.00
2018-09-24T19:21:11.246Z,102003.00
2018-09-24T19:26:19.943Z,102010.00
2018-09-24T19:31:28.836Z,102022.00
2018-09-24T19:36:37.548Z,102024.00
2018-09-24T19:41:46.876Z,102029.00
2018-09-24T19:46:55.715Z,102033.00
2018-09-24T19:52:04.593Z,102034.00
2018-09-24T19:57:13.398Z,102032.00
2018-09-24T20:02:22.347Z,102037.00
2018-09-24T20:07:31.062Z,102032.00
2018-09-24T20:12:39.831Z,102034.00
2018-09-24T20:17:49.739Z,102041.00
2018-09-24T20:22:58.508Z,102044.00
2018-09-24T20:28:09.501Z,102053.00
2018-09-24T20:33:18.112Z,102058.00
2018-09-24T20:38:26.812Z,102056.00
2018-09-24T20:43:35.487Z,102050.00
2018-09-24T20:48:44.155Z,102060.00
2018-09-24T20:53:52.887Z,102059.00
2018-09-24T20:59:02.038Z,102079.00
2018-09-24T21:04:11.075Z,102080.00
2018-09-24T21:09:19.903Z,102086.00
2018-09-24T21:14:28.789Z,102082.00
2018-09-24T21:19:37.375Z,102089.00
2018-09-24T21:24:46.052Z,102087.00
2018-09-24T21:29:54.665Z,102089.00
2018-09-24T21:35:03.464Z,102104.00
2018-09-24T21:40:12.411Z,102094.00
2018-09-24T21:45:21.140Z,102102.00
2018-09-24T21:50:29.956Z,102105.00
2018-09-24T21:55:38.561Z,102120.00
2018-09-24T22:00:47.562Z,102117.00
2018-09-24T22:05:56.578Z,102121.00
2018-09-24T22:11:05.266Z,102139.00
2018-09-24T22:16:14.116Z,102134.00
2018-09-24T22:21:22.753Z,102141.00
2018-09-24T22:26:31.512Z,102131.00
2018-09-24T22:31:40.276Z,102143.00
2018-09-24T22:36:48.855Z,102140.00
2018-09-24T22:41:57.756Z,102149.00
2018-09-24T22:47:06.450Z,102152.00
2018-09-24T22:52:15.132Z,102158.00
2018-09-24T22:57:23.771Z,102159.00
2018-09-24T23:02:32.407Z,102155.00
2018-09-24T23:07:41.002Z,102154.00
2018-09-24T23:12:49.749Z,102155.00
2018-09-24T23:17:58.948Z,102167.00
2018-09-24T23:23:08.375Z,102160.00
2018-09-24T23:28:17.196Z,102168.00
2018-09-24T23:33:25.827Z,102149.00
2018-09-24T23:38:34.398Z,102151.00
2018-09-24T23:43:43.099Z,102111.00
2018-09-24T23:48:51.751Z,102149.00
2018-09-24T23:54:03.078Z,102158.00
2018-09-24T23:59:11.848Z,102163.00
